Time;durP1;ratioP1;P1;durP2;ratioP2;P2;SDS_P1;SDS_P2;PMS_P1;PMS_P2;Temp;Humidity;BMP_temperature;BMP_pressure;BME280_temperature;BME280_humidity;BME280_pressure;Samples;Min_cycle;Max_cycle;Signal;HPM_P1;HPM_P2
2023/04/25 00:02:19;;;;;;;27.02;6.03;;;7.40;99.90;;;;;;5076404;28;20202;-72
2023/04/25 00:04:45;;;;;;;22.60;5.85;;;7.40;99.90;;;;;;5085351;28;20458;-72
2023/04/25 00:07:11;;;;;;;19.88;5.90;;;7.40;99.90;;;;;;5086973;28;20044;-72
2023/04/25 00:09:36;;;;;;;23.63;5.60;;;7.40;99.90;;;;;;5085959;28;20074;-72
2023/04/25 00:12:02;;;;;;;20.20;5.55;;;7.30;99.90;;;;;;5077360;28;20039;-72
2023/04/25 00:14:30;;;;;;;20.77;5.50;;;7.30;99.90;;;;;;5084466;28;20740;-72
2023/04/25 00:16:56;;;;;;;18.73;4.88;;;7.20;99.90;;;;;;5081296;28;20052;-72
2023/04/25 00:19:21;;;;;;;25.63;5.70;;;7.30;99.90;;;;;;5080251;28;20498;-72
2023/04/25 00:21:47;;;;;;;20.52;5.45;;;7.20;99.90;;;;;;5081983;28;20036;-72
2023/04/25 00:24:16;;;;;;;21.45;5.97;;;7.30;99.90;;;;;;5065318;28;20044;-72
2023/04/25 00:26:44;;;;;;;21.15;5.28;;;7.30;99.90;;;;;;5084665;28;20036;-72
2023/04/25 00:29:10;;;;;;;18.88;5.45;;;7.20;99.90;;;;;;5081664;28;20098;-72
2023/04/25 00:31:36;;;;;;;20.00;4.97;;;7.20;99.90;;;;;;5084328;28;20488;-72
2023/04/25 00:34:01;;;;;;;22.23;4.85;;;7.20;99.90;;;;;;5084898;28;20051;-72
2023/04/25 00:36:27;;;;;;;23.80;5.57;;;7.20;99.90;;;;;;5063350;28;20039;-72
2023/04/25 00:38:54;;;;;;;18.52;5.05;;;7.30;99.90;;;;;;5076435;28;20625;-72
2023/04/25 00:41:20;;;;;;;15.18;4.93;;;7.20;99.90;;;;;;5072407;28;20169;-72
2023/04/25 00:43:47;;;;;;;22.55;5.50;;;7.20;99.90;;;;;;5083095;28;20135;-72
2023/04/25 00:46:13;;;;;;;22.17;5.43;;;7.20;99.90;;;;;;5079985;28;20036;-72
2023/04/25 00:48:38;;;;;;;20.67;5.22;;;7.10;99.90;;;;;;5078073;28;20391;-71
2023/04/25 00:51:04;;;;;;;21.70;5.50;;;7.10;99.90;;;;;;5082532;28;20036;-72
2023/04/25 00:53:32;;;;;;;21.17;5.25;;;7.10;99.90;;;;;;5064434;28;20051;-72
2023/04/25 00:55:58;;;;;;;20.63;4.85;;;7.00;99.90;;;;;;5082394;28;20082;-72
2023/04/25 00:58:24;;;;;;;20.27;5.93;;;7.00;99.90;;;;;;5085754;28;20126;-72
2023/04/25 01:00:54;;;;;;;22.23;5.80;;;7.00;99.90;;;;;;5059077;28;20044;-72
2023/04/25 01:03:20;;;;;;;19.90;5.30;;;7.00;99.90;;;;;;5059605;28;20071;-72
2023/04/25 01:05:46;;;;;;;25.67;5.43;;;7.00;99.90;;;;;;5079107;28;20036;-72
2023/04/25 01:08:13;;;;;;;24.83;5.38;;;6.90;99.90;;;;;;5080280;28;20040;-72
2023/04/25 01:10:38;;;;;;;21.75;5.47;;;6.90;99.90;;;;;;5066640;28;20399;-72
2023/04/25 01:13:04;;;;;;;21.75;6.00;;;6.90;99.90;;;;;;5063450;28;20073;-72
2023/04/25 01:15:30;;;;;;;23.75;6.05;;;6.90;99.90;;;;;;5097923;28;20055;-73
2023/04/25 01:17:57;;;;;;;22.95;6.47;;;6.90;99.90;;;;;;5084095;28;20127;-73
2023/04/25 01:20:24;;;;;;;25.30;6.25;;;6.80;99.90;;;;;;5066028;28;20047;-72
2023/04/25 01:22:53;;;;;;;31.93;6.17;;;6.80;99.90;;;;;;5077420;28;20056;-72
2023/04/25 01:25:19;;;;;;;21.75;5.72;;;6.80;99.90;;;;;;5073089;28;20301;-73
2023/04/25 01:27:45;;;;;;;22.52;5.28;;;6.80;99.90;;;;;;5065795;28;20497;-72
2023/04/25 01:30:11;;;;;;;24.27;5.60;;;6.80;99.90;;;;;;5096186;28;20762;-72
2023/04/25 01:32:38;;;;;;;20.58;5.60;;;6.70;99.90;;;;;;5062033;28;20055;-72
2023/04/25 01:35:13;;;;;;;20.90;5.55;;;6.70;99.90;;;;;;5081673;28;20032;-72
2023/04/25 01:37:39;;;;;;;16.23;5.05;;;6.70;99.90;;;;;;5079319;28;20126;-72
2023/04/25 01:40:06;;;;;;;20.02;4.85;;;6.60;99.90;;;;;;5083400;28;20036;-72
2023/04/25 01:42:37;;;;;;;17.50;6.17;;;6.60;99.90;;;;;;5082453;28;20048;-72
2023/04/25 01:45:06;;;;;;;18.58;5.57;;;6.60;99.90;;;;;;5075556;28;20673;-72
2023/04/25 01:47:32;;;;;;;17.77;5.30;;;6.60;99.90;;;;;;5085341;28;20040;-72
2023/04/25 01:49:58;;;;;;;24.85;5.03;;;6.60;99.90;;;;;;5084997;28;20376;-72
2023/04/25 01:52:23;;;;;;;20.85;4.68;;;6.60;99.90;;;;;;5100597;28;20666;-72
2023/04/25 01:54:52;;;;;;;16.42;4.32;;;6.60;99.90;;;;;;5086642;28;20040;-72
2023/04/25 01:57:18;;;;;;;18.15;5.25;;;6.50;99.90;;;;;;5070723;28;20043;-72
2023/04/25 01:59:44;;;;;;;19.40;4.55;;;6.50;99.90;;;;;;5080801;28;20302;-72
2023/04/25 02:02:09;;;;;;;17.25;4.72;;;6.50;99.90;;;;;;5082967;28;20962;-72
2023/04/25 02:04:35;;;;;;;23.48;6.28;;;6.40;99.90;;;;;;5084220;28;20054;-72
2023/04/25 02:07:01;;;;;;;23.08;5.10;;;6.50;99.90;;;;;;5081149;28;20039;-72
2023/04/25 02:09:26;;;;;;;20.08;4.93;;;6.50;99.90;;;;;;5078978;28;20043;-72
2023/04/25 02:11:53;;;;;;;22.05;5.05;;;6.40;99.90;;;;;;5067867;28;20441;-72
2023/04/25 02:14:18;;;;;;;20.08;4.68;;;6.40;99.90;;;;;;5084595;28;20115;-72
2023/04/25 02:16:44;;;;;;;25.75;5.72;;;6.40;99.90;;;;;;5062396;28;20163;-72
2023/04/25 02:19:10;;;;;;;21.55;6.00;;;6.40;99.90;;;;;;5064972;28;20612;-72
2023/04/25 02:21:36;;;;;;;25.65;5.35;;;6.40;99.90;;;;;;5071102;28;20045;-73
2023/04/25 02:24:02;;;;;;;21.27;5.65;;;6.40;99.90;;;;;;5080115;28;20193;-72
2023/04/25 02:26:28;;;;;;;25.20;5.85;;;6.40;99.90;;;;;;5083736;28;20062;-72
2023/04/25 02:28:54;;;;;;;21.30;5.80;;;6.40;99.90;;;;;;5087896;28;20044;-72
2023/04/25 02:31:20;;;;;;;21.05;5.50;;;6.30;99.90;;;;;;5085294;28;20074;-73
2023/04/25 02:33:46;;;;;;;19.50;6.00;;;6.30;99.90;;;;;;5082955;28;20044;-72
2023/04/25 02:36:12;;;;;;;25.63;5.50;;;6.40;99.90;;;;;;5081049;28;20576;-72
2023/04/25 02:38:38;;;;;;;22.30;4.95;;;6.40;99.90;;;;;;5081133;28;20504;-72
2023/04/25 02:41:03;;;;;;;22.58;5.97;;;6.30;99.90;;;;;;5082415;28;20058;-73
2023/04/25 02:43:29;;;;;;;20.45;4.95;;;6.40;99.90;;;;;;5078875;28;20097;-73
2023/04/25 02:45:55;;;;;;;18.90;5.38;;;6.30;99.90;;;;;;5083558;28;20442;-73
2023/04/25 02:48:20;;;;;;;15.10;5.13;;;6.40;99.90;;;;;;5086047;28;20071;-73
2023/04/25 02:50:46;;;;;;;18.55;5.80;;;6.40;99.90;;;;;;5084670;28;20580;-73
2023/04/25 02:53:12;;;;;;;23.38;5.95;;;6.40;99.90;;;;;;5062238;28;20060;-72
2023/04/25 02:55:37;;;;;;;18.33;6.00;;;6.40;99.90;;;;;;5082474;28;20108;-73
2023/04/25 02:58:03;;;;;;;21.88;5.45;;;6.40;99.90;;;;;;5069182;28;20374;-73
2023/04/25 03:00:29;;;;;;;19.20;5.35;;;6.40;99.90;;;;;;5071659;28;20144;-73
2023/04/25 03:02:55;;;;;;;22.23;5.32;;;6.40;99.90;;;;;;5088432;28;20513;-73
2023/04/25 03:05:21;;;;;;;17.98;4.88;;;6.40;99.90;;;;;;5084621;28;20048;-73
2023/04/25 03:07:47;;;;;;;23.88;5.38;;;6.40;99.90;;;;;;5080265;28;20044;-73
2023/04/25 03:10:12;;;;;;;18.50;4.95;;;6.40;99.90;;;;;;5082880;28;20131;-73
2023/04/25 03:12:38;;;;;;;21.90;4.72;;;6.40;99.90;;;;;;5074569;28;20070;-73
2023/04/25 03:15:05;;;;;;;19.45;4.72;;;6.50;99.90;;;;;;5068207;28;20039;-73
2023/04/25 03:17:30;;;;;;;21.97;4.43;;;6.40;99.90;;;;;;5081103;28;20039;-73
2023/04/25 03:19:57;;;;;;;20.75;5.00;;;6.40;99.90;;;;;;5064374;28;20043;-73
2023/04/25 03:22:23;;;;;;;22.60;5.27;;;6.50;99.90;;;;;;5085532;28;20414;-73
2023/04/25 03:24:50;;;;;;;16.45;5.22;;;6.40;99.90;;;;;;5057604;28;20036;-72
2023/04/25 03:27:15;;;;;;;18.95;5.00;;;6.40;99.90;;;;;;5081558;28;20044;-73
2023/04/25 03:29:44;;;;;;;22.83;5.13;;;6.40;99.90;;;;;;5078690;28;20049;-72
2023/04/25 03:32:10;;;;;;;18.20;4.72;;;6.40;99.90;;;;;;5070411;28;20051;-72
2023/04/25 03:34:35;;;;;;;17.33;4.53;;;6.40;99.90;;;;;;5085217;28;20036;-73
2023/04/25 03:37:01;;;;;;;17.75;4.30;;;6.40;99.90;;;;;;5063446;28;20048;-72
2023/04/25 03:39:27;;;;;;;18.05;4.50;;;6.40;99.90;;;;;;5062537;28;20132;-73
2023/04/25 03:41:52;;;;;;;19.60;4.47;;;6.40;99.90;;;;;;5080018;28;20040;-72
2023/04/25 03:44:18;;;;;;;18.38;4.28;;;6.40;99.90;;;;;;5079808;28;20036;-73
2023/04/25 03:46:44;;;;;;;19.30;4.63;;;6.40;99.90;;;;;;5069370;28;20032;-72
2023/04/25 03:49:09;;;;;;;15.60;4.00;;;6.40;99.90;;;;;;5085722;28;20402;-73
2023/04/25 03:51:35;;;;;;;24.08;5.05;;;6.40;99.90;;;;;;5067861;28;20613;-73
2023/04/25 03:54:01;;;;;;;18.67;4.30;;;6.30;99.90;;;;;;5086803;28;20069;-72
2023/04/25 03:56:26;;;;;;;21.63;4.90;;;6.40;99.90;;;;;;5085037;28;20032;-73
2023/04/25 03:58:52;;;;;;;17.23;3.85;;;6.30;99.90;;;;;;5091095;28;20036;-73
2023/04/25 04:01:18;;;;;;;18.73;4.15;;;6.30;99.90;;;;;;5086130;28;20048;-73
2023/04/25 04:03:43;;;;;;;22.65;4.45;;;6.30;99.90;;;;;;5084437;28;20040;-72
2023/04/25 04:06:10;;;;;;;18.10;3.83;;;6.30;99.90;;;;;;5087762;28;20040;-73
2023/04/25 04:08:36;;;;;;;18.73;3.97;;;6.30;99.90;;;;;;5085639;28;20101;-73
2023/04/25 04:11:02;;;;;;;19.85;4.43;;;6.30;99.90;;;;;;5081925;28;20032;-72
2023/04/25 04:13:28;;;;;;;16.98;3.47;;;6.30;99.90;;;;;;5095828;28;20498;-72
2023/04/25 04:15:55;;;;;;;20.40;3.75;;;6.30;99.90;;;;;;5059315;28;20043;-72
2023/04/25 04:18:21;;;;;;;14.98;3.40;;;6.30;99.90;;;;;;5062774;28;20590;-73
2023/04/25 04:20:47;;;;;;;22.52;3.88;;;6.30;99.90;;;;;;5087462;28;20123;-73
2023/04/25 04:23:13;;;;;;;18.65;3.60;;;6.20;99.90;;;;;;5078294;28;20071;-72
2023/04/25 04:25:40;;;;;;;22.13;4.30;;;6.20;99.90;;;;;;5084596;28;20058;-73
2023/04/25 04:28:08;;;;;;;17.63;3.53;;;6.20;99.90;;;;;;5065810;28;20136;-73
2023/04/25 04:30:36;;;;;;;19.33;3.72;;;6.20;99.90;;;;;;5080919;28;20450;-73
2023/04/25 04:33:02;;;;;;;12.90;3.10;;;6.20;99.90;;;;;;5080323;28;20039;-72
2023/04/25 04:35:28;;;;;;;16.15;3.28;;;6.20;99.90;;;;;;5066883;28;20956;-72
2023/04/25 04:37:54;;;;;;;11.82;3.10;;;6.20;99.90;;;;;;5083590;28;20040;-72
2023/04/25 04:40:21;;;;;;;12.93;3.00;;;6.10;99.90;;;;;;5076445;28;20043;-73
2023/04/25 04:42:47;;;;;;;16.27;2.92;;;6.10;99.90;;;;;;5079204;28;20037;-72
2023/04/25 04:45:17;;;;;;;15.15;3.35;;;6.10;99.90;;;;;;5072044;28;20090;-72
2023/04/25 04:47:44;;;;;;;10.85;2.63;;;6.10;99.90;;;;;;5083006;28;20557;-72
2023/04/25 04:50:10;;;;;;;11.90;2.92;;;6.10;99.90;;;;;;5080938;28;20124;-72
2023/04/25 04:52:37;;;;;;;12.10;2.78;;;6.10;99.90;;;;;;5080967;28;20070;-71
2023/04/25 04:55:04;;;;;;;7.47;2.20;;;6.10;99.90;;;;;;5083553;28;20101;-72
2023/04/25 04:57:30;;;;;;;10.38;2.88;;;6.10;99.90;;;;;;5067707;28;20075;-72
2023/04/25 04:59:56;;;;;;;12.45;2.90;;;6.10;99.90;;;;;;5077908;28;20047;-74
2023/04/25 05:02:22;;;;;;;8.88;2.70;;;6.10;99.90;;;;;;5076807;28;20331;-71
2023/04/25 05:04:47;;;;;;;11.88;2.60;;;6.20;99.90;;;;;;5059425;28;20036;-72
2023/04/25 05:07:13;;;;;;;16.27;2.95;;;6.10;99.90;;;;;;5064373;28;20044;-72
2023/04/25 05:09:39;;;;;;;11.07;2.40;;;6.10;99.90;;;;;;5084515;28;20117;-72
2023/04/25 05:12:05;;;;;;;10.73;2.25;;;6.10;99.90;;;;;;5060428;28;20094;-72
2023/04/25 05:14:30;;;;;;;9.52;2.67;;;6.20;99.90;;;;;;5063962;28;20073;-72
2023/04/25 05:16:56;;;;;;;8.85;2.17;;;6.20;99.90;;;;;;5055990;28;20044;-72
2023/04/25 05:19:22;;;;;;;10.27;2.22;;;6.20;99.90;;;;;;5075095;28;20040;-72
2023/04/25 05:21:47;;;;;;;10.82;2.20;;;6.30;99.90;;;;;;5083345;28;20047;-72
2023/04/25 05:24:13;;;;;;;10.73;2.13;;;6.40;99.90;;;;;;5077041;28;20185;-72
2023/04/25 05:26:39;;;;;;;10.15;2.13;;;6.40;99.90;;;;;;5058524;28;20036;-72
2023/04/25 05:29:05;;;;;;;10.80;2.08;;;6.40;99.90;;;;;;5074086;28;20667;-72
2023/04/25 05:31:31;;;;;;;10.65;2.17;;;6.40;99.90;;;;;;5079668;28;20040;-72
2023/04/25 05:33:57;;;;;;;12.57;2.25;;;6.40;99.90;;;;;;5079060;28;20051;-72
2023/04/25 05:36:23;;;;;;;12.18;2.28;;;6.50;99.90;;;;;;5076540;28;20044;-72
2023/04/25 05:38:48;;;;;;;12.05;2.78;;;6.40;99.90;;;;;;5095607;28;20036;-72
2023/04/25 05:41:16;;;;;;;10.48;2.10;;;6.40;99.90;;;;;;5054692;28;20047;-72
2023/04/25 05:43:46;;;;;;;10.73;2.33;;;6.40;99.90;;;;;;5081098;28;20465;-72
2023/04/25 05:46:13;;;;;;;10.15;2.67;;;6.30;99.90;;;;;;5081012;28;20048;-72
2023/04/25 05:48:44;;;;;;;10.07;2.25;;;6.40;99.90;;;;;;5056605;28;20040;-72
2023/04/25 05:51:10;;;;;;;9.25;2.40;;;6.40;99.90;;;;;;5095731;28;20028;-73
2023/04/25 05:53:38;;;;;;;12.98;2.38;;;6.40;99.90;;;;;;5063424;28;20036;-71
2023/04/25 05:56:06;;;;;;;9.93;2.25;;;6.40;99.90;;;;;;5070280;28;20036;-71
2023/04/25 05:58:32;;;;;;;8.82;2.38;;;6.40;99.90;;;;;;5083596;28;20552;-71
2023/04/25 06:00:58;;;;;;;10.48;2.40;;;6.50;99.90;;;;;;5079887;28;20056;-71
2023/04/25 06:03:29;;;;;;;12.73;2.75;;;6.60;99.90;;;;;;5079449;28;20554;-71
2023/04/25 06:05:58;;;;;;;12.13;2.58;;;6.60;99.90;;;;;;5081136;28;20435;-71
2023/04/25 06:08:23;;;;;;;10.90;2.20;;;6.60;99.90;;;;;;5083938;28;20031;-70
2023/04/25 06:10:49;;;;;;;9.63;2.38;;;6.70;99.90;;;;;;5073630;28;20073;-71
2023/04/25 06:13:15;;;;;;;13.52;2.80;;;6.70;99.90;;;;;;5071835;28;20036;-70
2023/04/25 06:15:41;;;;;;;9.30;3.10;;;6.70;99.90;;;;;;5078042;28;20047;-71
2023/04/25 06:18:07;;;;;;;7.63;2.50;;;6.80;99.90;;;;;;5075486;28;20033;-71
2023/04/25 06:20:32;;;;;;;9.52;2.55;;;6.90;99.90;;;;;;5056833;28;20054;-71
2023/04/25 06:22:58;;;;;;;15.63;2.97;;;6.90;99.90;;;;;;5072159;28;20064;-71
2023/04/25 06:25:24;;;;;;;12.75;2.80;;;7.00;99.90;;;;;;5080280;28;20032;-71
2023/04/25 06:27:49;;;;;;;12.75;2.80;;;7.10;99.90;;;;;;5075512;28;20523;-70
2023/04/25 06:30:18;;;;;;;10.98;3.03;;;7.20;99.90;;;;;;5086790;28;20043;-70
2023/04/25 06:32:43;;;;;;;13.10;2.88;;;7.30;99.90;;;;;;5073266;28;20040;-70
2023/04/25 06:35:10;;;;;;;12.25;2.85;;;7.30;99.90;;;;;;5084633;28;20378;-70
2023/04/25 06:37:35;;;;;;;16.40;3.78;;;7.30;99.90;;;;;;5088242;28;20036;-70
2023/04/25 06:40:02;;;;;;;15.48;3.22;;;7.30;99.90;;;;;;5077948;28;20033;-70
2023/04/25 06:42:28;;;;;;;13.82;3.10;;;7.30;99.90;;;;;;5084070;28;20051;-70
2023/04/25 06:44:53;;;;;;;16.05;3.60;;;7.30;99.90;;;;;;5086216;28;20052;-70
2023/04/25 06:47:23;;;;;;;14.90;3.10;;;7.40;99.90;;;;;;5060574;28;20132;-71
2023/04/25 06:49:49;;;;;;;15.32;2.92;;;7.40;99.90;;;;;;5066105;28;20067;-71
2023/04/25 06:52:14;;;;;;;16.60;3.30;;;7.50;99.90;;;;;;5073503;28;20483;-71
2023/04/25 06:54:40;;;;;;;13.15;2.45;;;7.50;99.90;;;;;;5088192;28;20044;-71
2023/04/25 06:57:06;;;;;;;14.48;2.90;;;7.50;99.90;;;;;;5082916;28;20050;-71
2023/04/25 06:59:32;;;;;;;13.50;2.80;;;7.50;99.90;;;;;;5065424;28;20072;-71
2023/04/25 07:01:58;;;;;;;24.75;3.35;;;7.50;99.90;;;;;;5080828;28;20414;-71
2023/04/25 07:04:24;;;;;;;14.18;2.90;;;7.50;99.90;;;;;;5076545;28;20122;-72
2023/04/25 07:06:50;;;;;;;13.13;2.80;;;7.60;99.90;;;;;;5082410;28;20554;-71
2023/04/25 07:09:16;;;;;;;12.48;2.88;;;7.60;99.90;;;;;;5083980;28;20613;-72
2023/04/25 07:11:42;;;;;;;10.68;2.63;;;7.60;99.90;;;;;;5076208;28;20566;-71
2023/04/25 07:14:07;;;;;;;11.18;3.00;;;7.60;99.90;;;;;;5087506;28;20048;-71
2023/04/25 07:16:33;;;;;;;16.67;3.15;;;7.70;99.90;;;;;;5076594;28;20044;-74
2023/04/25 07:18:59;;;;;;;17.30;3.10;;;7.80;99.90;;;;;;5086497;28;20110;-71
2023/04/25 07:21:25;;;;;;;11.35;2.95;;;7.80;99.90;;;;;;5088462;28;20071;-71
2023/04/25 07:23:51;;;;;;;11.98;3.15;;;7.80;99.90;;;;;;5083095;28;20548;-71
2023/04/25 07:26:16;;;;;;;13.05;3.15;;;7.80;99.90;;;;;;5069238;28;20066;-71
2023/04/25 07:28:43;;;;;;;17.65;2.60;;;7.80;99.90;;;;;;5071609;28;20079;-71
2023/04/25 07:31:08;;;;;;;10.88;2.92;;;7.80;99.90;;;;;;5089679;28;20119;-71
2023/04/25 07:33:34;;;;;;;13.70;3.40;;;7.80;99.90;;;;;;5083967;28;20464;-71
2023/04/25 07:36:02;;;;;;;11.93;2.85;;;7.90;99.90;;;;;;5089444;28;20490;-72
2023/04/25 07:38:30;;;;;;;10.45;2.53;;;7.90;99.90;;;;;;5087215;28;20034;-72
2023/04/25 07:40:56;;;;;;;16.95;2.65;;;8.00;99.90;;;;;;5064072;28;20080;-72
2023/04/25 07:43:24;;;;;;;9.18;2.05;;;8.00;99.90;;;;;;5083446;28;20066;-72
2023/04/25 07:45:50;;;;;;;15.93;2.63;;;8.10;99.90;;;;;;5089438;28;20080;-73
2023/04/25 07:48:18;;;;;;;13.27;2.75;;;8.10;99.90;;;;;;5088414;28;20078;-73
2023/04/25 07:50:45;;;;;;;10.20;2.20;;;8.10;99.90;;;;;;5077862;28;20046;-73
2023/04/25 07:53:10;;;;;;;11.20;2.28;;;8.10;99.90;;;;;;5070333;28;20055;-75
2023/04/25 07:55:39;;;;;;;8.65;1.85;;;8.00;99.90;;;;;;5066434;28;20040;-77
2023/04/25 07:58:09;;;;;;;11.27;2.40;;;8.00;99.90;;;;;;5073329;28;20068;-71
2023/04/25 08:00:35;;;;;;;10.30;2.67;;;8.10;99.90;;;;;;5067920;28;20052;-72
2023/04/25 08:03:01;;;;;;;10.45;1.90;;;8.20;99.90;;;;;;5088403;28;20466;-72
2023/04/25 08:05:26;;;;;;;10.88;2.13;;;8.30;99.90;;;;;;5066393;28;20051;-71
2023/04/25 08:07:52;;;;;;;10.07;2.38;;;8.40;99.90;;;;;;5069249;28;20487;-72
2023/04/25 08:10:18;;;;;;;10.00;2.38;;;8.40;99.90;;;;;;5065896;28;20100;-71
2023/04/25 08:12:43;;;;;;;10.93;2.08;;;8.40;99.90;;;;;;5085715;28;20090;-71
2023/04/25 08:15:09;;;;;;;12.68;2.30;;;8.50;99.90;;;;;;5082709;28;20044;-72
2023/04/25 08:17:36;;;;;;;8.73;1.98;;;8.50;99.90;;;;;;5096156;28;20573;-73
2023/04/25 08:20:05;;;;;;;10.07;2.25;;;8.60;99.90;;;;;;5085372;28;20051;-72
2023/04/25 08:22:30;;;;;;;12.05;2.78;;;8.60;99.90;;;;;;5086562;28;20048;-71
2023/04/25 08:24:56;;;;;;;9.73;2.05;;;8.50;99.90;;;;;;5084733;28;20054;-71
2023/04/25 08:27:22;;;;;;;8.15;2.25;;;8.60;99.90;;;;;;5087961;28;20094;-71
2023/04/25 08:29:47;;;;;;;8.27;2.33;;;8.70;99.90;;;;;;5086235;28;20040;-71
2023/04/25 08:32:13;;;;;;;11.38;2.10;;;8.70;99.90;;;;;;5079062;28;20093;-71
2023/04/25 08:34:42;;;;;;;14.18;2.88;;;8.70;99.90;;;;;;5086052;28;20523;-72
2023/04/25 08:37:09;;;;;;;8.63;2.00;;;8.70;99.90;;;;;;5087397;28;20582;-72
2023/04/25 08:39:36;;;;;;;7.40;1.70;;;8.70;99.90;;;;;;5087809;28;20044;-72
2023/04/25 08:42:05;;;;;;;6.72;1.60;;;8.80;99.90;;;;;;5066855;28;20036;-72
2023/04/25 08:44:34;;;;;;;7.13;1.73;;;8.90;96.90;;;;;;5086659;28;20089;-72
2023/04/25 08:47:00;;;;;;;10.10;1.63;;;9.00;96.40;;;;;;5088184;28;20048;-71
2023/04/25 08:49:26;;;;;;;8.33;1.80;;;9.20;97.00;;;;;;5067563;28;20596;-72
2023/04/25 08:51:53;;;;;;;8.32;1.58;;;9.10;95.00;;;;;;5068484;28;20040;-72
2023/04/25 08:54:23;;;;;;;9.23;1.80;;;9.10;93.30;;;;;;5084235;28;20048;-71
2023/04/25 08:56:49;;;;;;;7.13;1.70;;;9.00;93.70;;;;;;5084738;28;20040;-73
2023/04/25 08:59:15;;;;;;;6.82;1.42;;;9.00;95.50;;;;;;5084791;28;20141;-72
2023/04/25 09:01:40;;;;;;;6.57;1.45;;;8.70;95.30;;;;;;5074589;28;20768;-70
2023/04/25 09:04:06;;;;;;;5.68;1.30;;;8.60;95.00;;;;;;5063050;28;20234;-70
2023/04/25 09:06:34;;;;;;;5.15;1.40;;;8.30;96.50;;;;;;5065623;28;20133;-70
2023/04/25 09:09:05;;;;;;;5.68;1.50;;;8.10;98.40;;;;;;5066928;28;20083;-71
2023/04/25 09:11:36;;;;;;;5.95;1.60;;;7.90;99.20;;;;;;5064307;28;20664;-71
2023/04/25 09:14:22;;;;;;;5.75;1.65;;;7.80;99.90;;;;;;5082422;28;20074;-71
2023/04/25 09:16:56;;;;;;;6.23;1.70;;;7.80;99.90;;;;;;5084260;28;20499;-70
2023/04/25 09:19:29;;;;;;;10.18;1.80;;;7.90;99.90;;;;;;5077703;28;20495;-70
2023/04/25 09:21:59;;;;;;;8.50;1.95;;;8.00;99.90;;;;;;5087455;28;20101;-70
2023/04/25 09:24:44;;;;;;;7.10;1.50;;;8.20;99.90;;;;;;5068923;28;20132;-71
2023/04/25 09:27:11;;;;;;;6.97;1.48;;;8.40;99.90;;;;;;5073447;28;20036;-71
2023/04/25 09:29:40;;;;;;;8.25;1.70;;;8.50;99.90;;;;;;5084815;28;20071;-71
2023/04/25 09:32:22;;;;;;;7.72;1.58;;;8.70;99.90;;;;;;5072193;28;20391;-73
2023/04/25 09:34:50;;;;;;;6.72;1.80;;;8.80;99.50;;;;;;5083215;28;20044;-71
2023/04/25 09:37:21;;;;;;;7.75;1.67;;;8.90;99.80;;;;;;5062834;28;20093;-73
2023/04/25 09:39:53;;;;;;;8.80;1.45;;;9.00;98.60;;;;;;5062764;28;20044;-71
2023/04/25 09:42:23;;;;;;;10.63;2.05;;;9.10;97.10;;;;;;5083346;28;20517;-71
2023/04/25 09:44:52;;;;;;;8.27;1.95;;;9.10;97.50;;;;;;5088744;28;20710;-72
2023/04/25 09:47:18;;;;;;;7.80;1.98;;;9.20;97.40;;;;;;5085137;28;20048;-70
2023/04/25 09:49:44;;;;;;;12.20;2.05;;;9.20;94.90;;;;;;5089021;28;20043;-73
2023/04/25 09:52:15;;;;;;;9.98;1.80;;;9.10;92.20;;;;;;5090948;28;20106;-73
2023/04/25 09:54:44;;;;;;;8.95;1.40;;;9.10;91.80;;;;;;5087161;28;20039;-72
2023/04/25 09:57:12;;;;;;;8.55;1.60;;;9.10;93.30;;;;;;5090710;28;20502;-73
2023/04/25 09:59:44;;;;;;;10.15;1.95;;;9.10;94.80;;;;;;5064106;28;20036;-72
2023/04/25 10:02:10;;;;;;;6.57;1.40;;;9.20;95.60;;;;;;5087854;28;20052;-79
2023/04/25 10:04:37;;;;;;;5.35;1.38;;;9.10;94.60;;;;;;5090465;28;20052;-79
2023/04/25 10:07:07;;;;;;;6.30;1.58;;;9.00;94.50;;;;;;5087596;28;20040;-75
2023/04/25 10:09:37;;;;;;;7.07;1.67;;;8.80;95.20;;;;;;5090040;28;20149;-74
2023/04/25 10:12:04;;;;;;;10.48;2.00;;;8.70;94.90;;;;;;5088519;28;20078;-73
2023/04/25 10:14:32;;;;;;;6.38;1.48;;;8.50;96.60;;;;;;5088703;28;20051;-75
2023/04/25 10:16:58;;;;;;;8.10;1.58;;;8.40;99.90;;;;;;5090195;28;20043;-73
2023/04/25 10:19:26;;;;;;;8.43;1.97;;;8.30;99.90;;;;;;5070964;28;20089;-73
2023/04/25 10:22:05;;;;;;;7.78;1.83;;;8.30;99.90;;;;;;5089626;28;20086;-74
2023/04/25 10:24:32;;;;;;;6.68;1.58;;;8.30;99.90;;;;;;5063530;28;20049;-75
2023/04/25 10:26:58;;;;;;;7.05;1.60;;;8.40;99.90;;;;;;5102600;27;20040;-73
2023/04/25 10:29:28;;;;;;;8.45;1.75;;;8.50;99.90;;;;;;5087099;28;20059;-74
2023/04/25 10:31:55;;;;;;;6.32;1.42;;;8.60;99.90;;;;;;5071962;28;20093;-73
2023/04/25 10:34:36;;;;;;;9.10;1.88;;;8.80;99.90;;;;;;5066662;28;20052;-72
2023/04/25 10:37:03;;;;;;;8.07;1.85;;;9.00;99.90;;;;;;5086976;28;20574;-71
2023/04/25 10:39:29;;;;;;;7.03;1.60;;;9.20;99.90;;;;;;5084004;28;20106;-74
2023/04/25 10:42:02;;;;;;;5.55;1.30;;;9.30;99.90;;;;;;5090056;28;20044;-78
2023/04/25 10:44:31;;;;;;;7.35;1.33;;;9.50;99.90;;;;;;5104142;28;20131;-74
2023/04/25 10:47:02;;;;;;;8.57;1.53;;;9.60;99.90;;;;;;5068375;28;20066;-73
2023/04/25 10:49:41;;;;;;;4.95;1.63;;;9.70;99.80;;;;;;5233581;22;20056;-76
2023/04/25 10:52:15;;;;;;;8.85;1.75;;;9.90;99.90;;;;;;5089265;28;20107;-72
2023/04/25 10:55:03;;;;;;;8.02;1.77;;;9.80;99.80;;;;;;5058276;28;20052;-72
2023/04/25 10:57:29;;;;;;;;;;;9.50;99.90;;;;;;5054635;28;20644;-73
2023/04/25 11:00:18;;;;;;;9.95;2.58;;;9.10;99.90;;;;;;5049890;28;20367;-73
2023/04/25 11:02:58;;;;;;;6.97;2.10;;;8.80;99.90;;;;;;5093673;28;20079;-74
2023/04/25 11:05:33;;;;;;;9.10;1.88;;;8.70;99.90;;;;;;5057629;28;20647;-75
2023/04/25 11:07:59;;;;;;;7.80;1.80;;;8.60;99.90;;;;;;5054591;28;20475;-72
2023/04/25 11:10:30;;;;;;;6.68;1.80;;;8.60;99.90;;;;;;5057781;28;20057;-71
2023/04/25 11:12:56;;;;;;;5.10;1.58;;;8.60;99.90;;;;;;5081212;28;20041;-71
2023/04/25 11:15:22;;;;;;;5.03;1.53;;;8.70;99.90;;;;;;5055149;28;20041;-71
2023/04/25 11:17:48;;;;;;;5.13;1.67;;;8.80;99.90;;;;;;5051418;28;20564;-70
2023/04/25 11:20:15;;;;;;;4.32;1.67;;;8.90;99.90;;;;;;5059418;28;20554;-72
2023/04/25 11:22:41;;;;;;;5.93;1.40;;;9.10;99.90;;;;;;5047895;28;20071;-72
2023/04/25 11:25:08;;;;;;;7.60;1.70;;;9.20;99.90;;;;;;5052292;28;20047;-71
2023/04/25 11:27:37;;;;;;;7.38;1.50;;;9.40;99.90;;;;;;5060652;28;20040;-76
2023/04/25 11:30:15;;;;;;;9.32;2.13;;;9.50;99.90;;;;;;5062927;28;20032;-74
2023/04/25 11:32:42;;;;;;;7.15;2.05;;;9.60;99.90;;;;;;5056702;28;20575;-77
2023/04/25 11:35:08;;;;;;;7.25;2.05;;;9.60;99.90;;;;;;5060867;28;20101;-73
2023/04/25 11:37:34;;;;;;;8.15;1.67;;;9.60;99.90;;;;;;5058029;28;20275;-73
2023/04/25 11:40:00;;;;;;;8.23;2.20;;;9.50;99.90;;;;;;5064539;28;20066;-73
2023/04/25 11:42:26;;;;;;;7.53;2.20;;;9.50;99.90;;;;;;5064862;28;20085;-72
2023/04/25 11:44:52;;;;;;;10.60;2.33;;;9.40;99.90;;;;;;5064161;28;20044;-72
2023/04/25 11:47:19;;;;;;;8.82;2.20;;;9.20;99.90;;;;;;5050211;28;20557;-74
2023/04/25 11:49:45;;;;;;;9.90;2.20;;;9.00;99.90;;;;;;5061189;28;20576;-72
2023/04/25 11:52:13;;;;;;;11.82;2.08;;;8.90;99.90;;;;;;5054875;28;20495;-72
2023/04/25 11:54:39;;;;;;;7.60;2.22;;;9.00;99.90;;;;;;5052510;28;20066;-72
2023/04/25 11:57:04;;;;;;;6.50;1.90;;;9.10;99.90;;;;;;5062198;28;20044;-72
2023/04/25 11:59:30;;;;;;;4.95;1.63;;;9.10;99.90;;;;;;5054791;28;20035;-72
2023/04/25 12:01:57;;;;;;;5.53;1.92;;;9.00;99.90;;;;;;5051570;28;20028;-72
2023/04/25 12:04:24;;;;;;;8.40;1.73;;;8.70;99.90;;;;;;5065249;28;20032;-73
2023/04/25 12:06:52;;;;;;;5.43;1.60;;;8.50;99.90;;;;;;5051576;28;20053;-72
2023/04/25 12:09:23;;;;;;;6.82;1.70;;;8.40;99.90;;;;;;5085767;28;20111;-73
2023/04/25 12:11:54;;;;;;;5.75;1.70;;;8.40;99.90;;;;;;5057380;28;20585;-74
2023/04/25 12:14:26;;;;;;;9.52;2.05;;;8.50;99.90;;;;;;5053400;28;20036;-75
2023/04/25 12:16:54;;;;;;;6.43;1.80;;;8.70;99.90;;;;;;5057479;28;20040;-75
2023/04/25 12:19:20;;;;;;;;;;;9.00;99.90;;;;;;5052046;28;20049;-75
2023/04/25 12:21:46;;;;;;;5.70;2.03;;;9.20;99.90;;;;;;5057268;28;19943;-74
2023/04/25 12:24:15;;;;;;;5.90;1.33;;;9.40;99.90;;;;;;5060522;28;20294;-74
2023/04/25 12:27:04;;;;;;;7.30;1.10;;;9.60;99.90;;;;;;5060815;28;20105;-74
2023/04/25 12:29:33;;;;;;;6.20;1.70;;;9.80;97.90;;;;;;5057903;28;20076;-75
2023/04/25 12:32:04;;;;;;;7.55;1.60;;;9.90;97.00;;;;;;5051721;28;20116;-75
2023/04/25 12:34:31;;;;;;;4.38;1.38;;;10.00;96.50;;;;;;5061995;28;20048;-75
2023/04/25 12:36:57;;;;;;;8.15;1.67;;;10.10;95.20;;;;;;5056930;28;20166;-74
2023/04/25 12:39:25;;;;;;;8.68;2.05;;;10.20;94.00;;;;;;5061633;28;20187;-74
2023/04/25 12:41:54;;;;;;;6.43;1.70;;;10.40;93.40;;;;;;5064007;28;20147;-74
2023/04/25 12:44:21;;;;;;;6.28;1.65;;;10.40;91.40;;;;;;5051941;28;20032;-74
2023/04/25 12:46:47;;;;;;;12.05;2.17;;;10.40;90.30;;;;;;5063716;28;20048;-76
2023/04/25 12:49:13;;;;;;;8.20;2.03;;;10.50;91.60;;;;;;5048035;28;20713;-75
2023/04/25 12:51:38;;;;;;;6.45;1.80;;;10.60;93.00;;;;;;5054383;28;20056;-73